METAR Data
IDs: Format: Raw Decoded Include TAF

Data at: 2153 UTC 01 Dec 2021

KCFE 012135Z AUTO 21008KT 10SM CLR 10/05 A2955 RMK AO2